createdAt,value
2022-11-19T00:02:01.706Z,5.30
2022-11-19T00:04:29.649Z,6.03
2022-11-19T00:06:57.513Z,5.65
2022-11-19T00:09:25.395Z,5.00
2022-11-19T00:12:10.772Z,5.18
2022-11-19T00:14:39.981Z,5.28
2022-11-19T00:17:07.827Z,4.82
2022-11-19T00:19:35.550Z,5.40
2022-11-19T00:22:03.269Z,4.63
2022-11-19T00:24:31.009Z,4.75
2022-11-19T00:26:58.775Z,5.18
2022-11-19T00:29:26.521Z,5.88
2022-11-19T00:31:55.605Z,7.55
2022-11-19T00:34:23.515Z,7.78
2022-11-19T00:36:51.324Z,7.72
2022-11-19T00:39:20.532Z,6.97
2022-11-19T00:41:48.651Z,5.22
2022-11-19T00:44:16.427Z,4.22
2022-11-19T00:46:44.253Z,4.78
2022-11-19T00:49:13.325Z,4.90
2022-11-19T00:51:41.138Z,5.35
2022-11-19T00:54:08.983Z,5.00
2022-11-19T00:56:36.798Z,5.25
2022-11-19T00:59:05.076Z,5.25
2022-11-19T01:01:32.928Z,4.68
2022-11-19T01:04:00.730Z,4.88
2022-11-19T01:06:29.805Z,5.47
2022-11-19T01:08:58.157Z,5.88
2022-11-19T01:11:27.627Z,5.25
2022-11-19T01:13:55.949Z,4.85
2022-11-19T01:16:27.889Z,5.88
2022-11-19T01:18:56.338Z,5.53
2022-11-19T01:21:26.308Z,5.22
2022-11-19T01:23:55.827Z,6.20
2022-11-19T01:26:23.906Z,6.05
2022-11-19T01:28:52.223Z,5.82
2022-11-19T01:31:22.145Z,6.47
2022-11-19T01:33:50.335Z,6.80
2022-11-19T01:36:20.124Z,5.75
2022-11-19T01:38:50.761Z,5.55
2022-11-19T01:41:21.335Z,5.97
2022-11-19T01:43:51.817Z,5.25
2022-11-19T01:46:21.477Z,5.00
2022-11-19T01:48:53.469Z,5.47
2022-11-19T01:51:25.212Z,6.57
2022-11-19T01:53:57.860Z,5.22
2022-11-19T01:56:28.722Z,5.93
2022-11-19T01:59:00.001Z,5.53
2022-11-19T02:01:29.339Z,6.07
2022-11-19T02:04:00.486Z,7.22
2022-11-19T02:06:29.527Z,6.03
2022-11-19T02:08:57.563Z,6.07
2022-11-19T02:11:58.800Z,6.15
2022-11-19T02:14:42.853Z,6.45
2022-11-19T02:17:20.054Z,6.60
2022-11-19T02:20:26.937Z,6.60
2022-11-19T02:23:31.853Z,7.10
2022-11-19T02:26:17.664Z,6.53
2022-11-19T02:28:48.535Z,7.28
2022-11-19T02:31:22.047Z,5.97
2022-11-19T02:33:58.617Z,6.22
2022-11-19T02:36:29.723Z,5.78
2022-11-19T02:39:03.504Z,5.57
2022-11-19T02:41:36.924Z,6.25
2022-11-19T02:44:30.855Z,5.85
2022-11-19T02:47:02.304Z,5.45
2022-11-19T02:49:34.732Z,6.75
2022-11-19T02:52:04.108Z,7.07
2022-11-19T02:54:32.046Z,6.45
2022-11-19T02:56:59.856Z,5.75
2022-11-19T02:59:51.664Z,6.40
2022-11-19T03:02:40.939Z,7.00
2022-11-19T03:05:14.622Z,7.25
2022-11-19T03:07:42.469Z,7.40
2022-11-19T03:10:12.217Z,6.68
2022-11-19T03:12:47.648Z,8.18
2022-11-19T03:15:46.364Z,7.00
2022-11-19T03:18:20.033Z,7.10
2022-11-19T03:20:51.411Z,7.47
2022-11-19T03:23:23.573Z,8.40
2022-11-19T03:25:55.393Z,8.55
2022-11-19T03:28:27.917Z,8.32
2022-11-19T03:30:57.757Z,8.23
2022-11-19T03:33:31.875Z,8.15
2022-11-19T03:36:02.859Z,8.60
2022-11-19T03:38:37.495Z,8.18
2022-11-19T03:41:06.969Z,8.38
2022-11-19T03:43:38.900Z,8.40
2022-11-19T03:46:11.000Z,8.50
2022-11-19T03:48:41.736Z,8.85
2022-11-19T03:51:14.363Z,8.90
2022-11-19T03:53:42.255Z,8.25
2022-11-19T03:56:12.711Z,8.93
2022-11-19T03:58:41.709Z,8.40
2022-11-19T04:01:10.152Z,8.88
2022-11-19T04:03:38.061Z,8.45
2022-11-19T04:06:07.786Z,8.35
2022-11-19T04:08:35.605Z,8.60
2022-11-19T04:13:30.082Z,9.40
2022-11-19T04:15:57.836Z,8.60
2022-11-19T04:18:25.607Z,9.57
2022-11-19T04:20:53.354Z,9.05
2022-11-19T04:23:22.470Z,9.25
2022-11-19T04:25:50.227Z,9.07
2022-11-19T04:28:18.016Z,8.38
2022-11-19T04:30:45.831Z,9.48
2022-11-19T04:33:13.660Z,8.00
2022-11-19T04:35:41.485Z,8.23
2022-11-19T04:38:09.289Z,8.07
2022-11-19T04:40:39.181Z,7.35
2022-11-19T04:43:06.964Z,8.77
2022-11-19T04:45:34.781Z,8.30
2022-11-19T04:48:02.571Z,8.05
2022-11-19T04:50:30.341Z,7.60
2022-11-19T04:52:58.144Z,7.25
2022-11-19T04:55:25.913Z,7.90
2022-11-19T04:57:55.046Z,8.30
2022-11-19T05:00:22.869Z,10.10
2022-11-19T05:02:50.662Z,10.18
2022-11-19T05:05:18.426Z,9.50
2022-11-19T05:07:46.203Z,9.20
2022-11-19T05:10:14.559Z,8.68
2022-11-19T05:12:42.340Z,9.20
2022-11-19T05:15:12.160Z,8.50
2022-11-19T05:17:39.962Z,9.05
2022-11-19T05:20:09.690Z,8.93
2022-11-19T05:22:37.436Z,9.15
2022-11-19T05:25:05.841Z,8.30
2022-11-19T05:27:33.697Z,8.73
2022-11-19T05:30:01.591Z,9.07
2022-11-19T05:32:30.936Z,9.57
2022-11-19T05:34:58.750Z,8.88
2022-11-19T05:37:26.563Z,9.20
2022-11-19T05:39:54.342Z,9.65
2022-11-19T05:42:22.148Z,9.63
2022-11-19T05:44:49.971Z,8.50
2022-11-19T05:47:17.806Z,8.57
2022-11-19T05:49:47.030Z,10.70
2022-11-19T05:52:15.781Z,8.88
2022-11-19T05:54:43.615Z,9.02
2022-11-19T05:57:11.377Z,10.15
2022-11-19T05:59:43.552Z,9.82
2022-11-19T06:02:12.089Z,11.13
2022-11-19T06:04:39.916Z,10.18
2022-11-19T06:07:09.025Z,10.13
2022-11-19T06:09:36.855Z,10.38
2022-11-19T06:12:05.014Z,9.40
2022-11-19T06:14:32.750Z,11.25
2022-11-19T06:17:01.664Z,15.45
2022-11-19T06:19:29.553Z,14.68
2022-11-19T06:21:57.388Z,12.30
2022-11-19T06:24:26.585Z,10.82
2022-11-19T06:26:54.416Z,11.52
2022-11-19T06:29:22.475Z,10.75
2022-11-19T06:31:50.422Z,8.90
2022-11-19T06:34:18.200Z,9.60
2022-11-19T06:36:50.363Z,10.20
2022-11-19T06:39:19.150Z,9.05
2022-11-19T06:41:49.327Z,9.45
2022-11-19T06:44:17.112Z,11.95
2022-11-19T06:46:44.898Z,9.35
2022-11-19T06:49:18.383Z,9.15
2022-11-19T06:51:47.622Z,9.70
2022-11-19T06:54:15.469Z,11.95
2022-11-19T06:56:43.183Z,9.95
2022-11-19T06:59:12.562Z,9.85
2022-11-19T07:01:40.414Z,9.52
2022-11-19T07:04:08.265Z,11.07
2022-11-19T07:06:36.011Z,11.00
2022-11-19T07:09:03.769Z,11.48
2022-11-19T07:11:31.609Z,10.73
2022-11-19T07:13:59.447Z,12.85
2022-11-19T07:16:30.516Z,10.52
2022-11-19T07:18:59.391Z,13.27
2022-11-19T07:21:27.770Z,12.95
2022-11-19T07:23:55.808Z,10.85
2022-11-19T07:26:23.787Z,10.98
2022-11-19T07:28:51.857Z,11.27
2022-11-19T07:31:19.844Z,11.90
2022-11-19T07:33:49.059Z,11.00
2022-11-19T07:36:18.538Z,11.05
2022-11-19T07:38:47.262Z,12.65
2022-11-19T07:41:32.741Z,11.82
2022-11-19T07:44:00.500Z,11.68
2022-11-19T07:46:28.322Z,12.30
2022-11-19T07:48:59.329Z,10.80
2022-11-19T07:51:27.740Z,11.25
2022-11-19T07:53:56.805Z,11.25
2022-11-19T07:56:25.000Z,10.75
2022-11-19T07:58:53.231Z,8.95
2022-11-19T08:01:23.378Z,9.57
2022-11-19T08:03:56.290Z,9.05
2022-11-19T08:06:29.735Z,9.05
2022-11-19T08:08:57.801Z,9.65
2022-11-19T08:11:26.091Z,8.73
2022-11-19T08:13:53.931Z,10.07
2022-11-19T08:16:35.908Z,10.27
2022-11-19T08:19:03.740Z,9.95
2022-11-19T08:21:32.805Z,9.90
2022-11-19T08:24:00.648Z,9.68
2022-11-19T08:26:28.421Z,10.88
2022-11-19T08:28:56.356Z,12.00
2022-11-19T08:31:24.179Z,10.38
2022-11-19T08:33:52.502Z,11.77
2022-11-19T08:36:20.282Z,11.55
2022-11-19T08:38:49.433Z,11.43
2022-11-19T08:41:34.550Z,10.60
2022-11-19T08:44:02.571Z,11.63
2022-11-19T08:46:30.456Z,10.70
2022-11-19T08:48:58.715Z,9.75
2022-11-19T08:51:26.626Z,10.68
2022-11-19T08:53:55.760Z,10.52
2022-11-19T08:56:23.593Z,9.35
2022-11-19T08:58:52.911Z,8.52
2022-11-19T09:01:20.948Z,8.10
2022-11-19T09:03:48.874Z,8.52
2022-11-19T09:06:16.960Z,8.35
2022-11-19T09:08:44.789Z,9.05
2022-11-19T09:11:17.654Z,8.82
2022-11-19T09:13:45.507Z,8.65
2022-11-19T09:16:13.349Z,9.88
2022-11-19T09:18:42.150Z,8.23
2022-11-19T09:21:11.698Z,8.65
2022-11-19T09:23:41.436Z,9.18
2022-11-19T09:26:11.829Z,8.40
2022-11-19T09:28:41.273Z,7.97
2022-11-19T09:31:11.319Z,8.98
2022-11-19T09:33:42.052Z,8.90
2022-11-19T09:36:10.614Z,8.07
2022-11-19T09:38:39.313Z,8.65
2022-11-19T09:41:22.811Z,7.82
2022-11-19T09:44:05.166Z,8.88
2022-11-19T09:46:39.384Z,9.65
2022-11-19T09:49:12.889Z,7.35
2022-11-19T09:51:45.607Z,6.32
2022-11-19T09:54:18.164Z,6.70
2022-11-19T09:56:47.779Z,7.03
2022-11-19T09:59:23.999Z,7.40
2022-11-19T10:01:52.058Z,7.85
2022-11-19T10:04:23.631Z,9.35
2022-11-19T10:07:06.405Z,9.30
2022-11-19T10:09:48.854Z,9.13
2022-11-19T10:12:29.832Z,8.20
2022-11-19T10:15:15.956Z,7.60
2022-11-19T10:17:54.722Z,5.22
2022-11-19T10:20:41.927Z,5.15
2022-11-19T10:23:17.420Z,4.90
2022-11-19T10:25:47.438Z,5.65
2022-11-19T10:28:16.883Z,5.53
2022-11-19T10:30:50.599Z,4.43
2022-11-19T10:33:24.714Z,3.60
2022-11-19T10:35:58.578Z,4.13
2022-11-19T10:38:32.568Z,4.50
2022-11-19T10:41:05.065Z,4.70
2022-11-19T10:43:37.898Z,5.90
2022-11-19T10:46:11.761Z,5.45
2022-11-19T10:48:43.165Z,5.88
2022-11-19T10:51:15.031Z,4.80
2022-11-19T10:53:43.477Z,5.13
2022-11-19T10:56:15.381Z,4.57
2022-11-19T10:58:47.595Z,5.60
2022-11-19T11:01:24.582Z,5.93
2022-11-19T11:03:59.529Z,6.93
2022-11-19T11:06:27.277Z,5.65
2022-11-19T11:08:56.493Z,7.35
2022-11-19T11:11:47.861Z,5.75
2022-11-19T11:14:34.072Z,6.35
2022-11-19T11:17:03.762Z,6.35
2022-11-19T11:19:32.815Z,6.82
2022-11-19T11:22:01.142Z,8.20
2022-11-19T11:24:33.971Z,7.80
2022-11-19T11:27:20.105Z,10.38
2022-11-19T11:29:47.871Z,13.50
2022-11-19T11:32:30.777Z,14.73
2022-11-19T11:35:03.477Z,16.85
2022-11-19T11:37:34.595Z,12.85
2022-11-19T11:40:02.534Z,8.60
2022-11-19T11:42:30.795Z,7.20
2022-11-19T11:45:01.574Z,6.35
2022-11-19T11:47:33.055Z,5.70
2022-11-19T11:50:07.578Z,7.45
2022-11-19T11:52:41.009Z,7.15
2022-11-19T11:55:15.432Z,6.20
2022-11-19T11:57:54.447Z,6.90
2022-11-19T12:00:36.581Z,6.03
2022-11-19T12:03:07.916Z,5.25
2022-11-19T12:05:45.965Z,6.03
2022-11-19T12:08:26.566Z,5.47
2022-11-19T12:11:01.101Z,6.22
2022-11-19T12:13:53.124Z,6.57
2022-11-19T12:16:29.270Z,5.95
2022-11-19T12:21:43.692Z,5.07
2022-11-19T12:26:58.457Z,5.15
2022-11-19T12:29:33.678Z,5.63
2022-11-19T12:32:24.961Z,6.05
2022-11-19T12:35:19.786Z,6.15
2022-11-19T12:38:11.411Z,5.35
2022-11-19T12:40:49.444Z,5.30
2022-11-19T12:43:29.846Z,4.32
2022-11-19T12:46:04.970Z,4.45
2022-11-19T12:48:57.405Z,5.55
2022-11-19T12:51:38.693Z,4.53
2022-11-19T12:54:38.689Z,4.15
2022-11-19T12:57:21.626Z,4.47
2022-11-19T13:00:11.920Z,4.90
2022-11-19T13:02:55.536Z,4.90
2022-11-19T13:05:31.658Z,4.70
2022-11-19T13:08:05.886Z,4.28
2022-11-19T13:10:37.252Z,3.05
2022-11-19T13:13:08.524Z,3.42
2022-11-19T13:15:40.954Z,4.05
2022-11-19T13:18:13.990Z,3.42
2022-11-19T13:20:46.788Z,3.00
2022-11-19T13:23:21.270Z,3.42
2022-11-19T13:25:57.187Z,3.15
2022-11-19T13:28:30.122Z,3.70
2022-11-19T13:31:03.869Z,3.50
2022-11-19T13:33:38.547Z,3.25
2022-11-19T13:36:14.193Z,5.03
2022-11-19T13:38:49.028Z,3.88
2022-11-19T13:41:20.451Z,4.47
2022-11-19T13:44:06.340Z,4.22
2022-11-19T13:46:38.586Z,3.83
2022-11-19T13:49:12.945Z,4.63
2022-11-19T13:51:44.167Z,4.38
2022-11-19T13:54:23.683Z,4.30
2022-11-19T13:56:54.443Z,4.22
2022-11-19T13:59:41.471Z,3.97
2022-11-19T14:02:27.892Z,3.95
2022-11-19T14:05:20.987Z,4.28
2022-11-19T14:08:09.563Z,5.10
2022-11-19T14:10:45.102Z,7.07
2022-11-19T14:13:29.969Z,7.25
2022-11-19T14:16:27.958Z,7.15
2022-11-19T14:19:23.769Z,9.35
2022-11-19T14:22:11.223Z,11.65
2022-11-19T14:25:26.819Z,7.97
2022-11-19T14:27:55.961Z,7.53
2022-11-19T14:31:02.580Z,6.80
2022-11-19T14:34:00.295Z,5.90
2022-11-19T14:36:41.976Z,4.78
2022-11-19T14:39:18.851Z,5.75
2022-11-19T14:41:47.242Z,5.32
2022-11-19T14:44:35.819Z,5.20
2022-11-19T14:47:33.423Z,5.65
2022-11-19T14:50:04.335Z,4.88
2022-11-19T14:52:35.688Z,5.22
2022-11-19T14:55:06.602Z,6.95
2022-11-19T14:57:37.483Z,7.07
2022-11-19T15:00:08.770Z,5.10
2022-11-19T15:02:40.663Z,4.35
2022-11-19T15:05:18.041Z,4.53
2022-11-19T15:07:51.400Z,5.32
2022-11-19T15:10:46.166Z,4.88
2022-11-19T15:13:26.382Z,5.57
2022-11-19T15:16:09.466Z,7.22
2022-11-19T15:19:14.503Z,8.35
2022-11-19T15:22:21.102Z,7.47
2022-11-19T15:25:00.922Z,7.45
2022-11-19T15:27:42.660Z,8.02
2022-11-19T15:30:17.169Z,6.93
2022-11-19T15:33:20.036Z,6.50
2022-11-19T15:36:17.769Z,7.50
2022-11-19T15:38:49.730Z,6.15
2022-11-19T15:41:23.437Z,6.63
2022-11-19T15:43:55.417Z,6.93
2022-11-19T15:46:33.953Z,7.05
2022-11-19T15:49:07.513Z,6.03
2022-11-19T15:51:48.812Z,6.85
2022-11-19T15:54:16.717Z,7.18
2022-11-19T15:56:50.122Z,8.20
2022-11-19T15:59:20.448Z,7.97
2022-11-19T16:01:59.383Z,8.65
2022-11-19T16:04:31.554Z,9.07
2022-11-19T16:06:59.567Z,9.55
2022-11-19T16:09:27.813Z,9.23
2022-11-19T16:12:15.016Z,10.52
2022-11-19T16:15:07.160Z,11.65
2022-11-19T16:17:43.901Z,9.32
2022-11-19T16:20:21.978Z,7.28
2022-11-19T16:22:58.712Z,8.05
2022-11-19T16:25:33.803Z,7.53
2022-11-19T16:28:05.498Z,7.07
2022-11-19T16:30:43.815Z,5.90
2022-11-19T16:33:22.465Z,6.63
2022-11-19T16:35:53.665Z,7.35
2022-11-19T16:38:27.153Z,8.13
2022-11-19T16:41:13.837Z,6.88
2022-11-19T16:46:15.033Z,6.03
2022-11-19T16:49:01.132Z,4.93
2022-11-19T16:51:39.501Z,4.93
2022-11-19T16:54:09.602Z,6.10
2022-11-19T16:56:43.369Z,6.32
2022-11-19T16:59:19.278Z,5.70
2022-11-19T17:01:53.542Z,8.27
2022-11-19T17:04:22.604Z,7.32
2022-11-19T17:06:52.185Z,6.97
2022-11-19T17:09:41.474Z,7.07
2022-11-19T17:12:25.077Z,6.75
2022-11-19T17:14:58.283Z,5.55
2022-11-19T17:17:39.697Z,5.82
2022-11-19T17:20:59.618Z,6.22
2022-11-19T17:23:30.173Z,6.43
2022-11-19T17:25:59.535Z,5.30
2022-11-19T17:28:34.963Z,6.05
2022-11-19T17:31:05.929Z,7.50
2022-11-19T17:33:36.621Z,9.15
2022-11-19T17:36:05.108Z,9.40
2022-11-19T17:38:34.911Z,9.85
2022-11-19T17:41:04.970Z,14.30
2022-11-19T17:43:52.108Z,12.88
2022-11-19T17:46:20.870Z,11.60
2022-11-19T17:48:50.096Z,9.93
2022-11-19T17:51:20.244Z,9.20
2022-11-19T17:53:51.276Z,10.05
2022-11-19T17:56:20.631Z,14.00
2022-11-19T17:58:48.757Z,15.48
2022-11-19T18:01:17.633Z,18.15
2022-11-19T18:03:45.514Z,22.70
2022-11-19T18:06:14.437Z,22.25
2022-11-19T18:08:42.818Z,19.35
2022-11-19T18:11:14.344Z,12.40
2022-11-19T18:13:43.725Z,8.52
2022-11-19T18:16:14.364Z,8.48
2022-11-19T18:18:42.090Z,8.57
2022-11-19T18:21:11.796Z,7.70
2022-11-19T18:23:40.666Z,7.90
2022-11-19T18:26:12.490Z,7.65
2022-11-19T18:28:42.551Z,7.13
2022-11-19T18:31:16.800Z,6.57
2022-11-19T18:33:45.262Z,7.25
2022-11-19T18:36:13.128Z,7.70
2022-11-19T18:38:41.063Z,8.93
2022-11-19T18:41:12.757Z,7.57
2022-11-19T18:43:58.698Z,7.47
2022-11-19T18:46:27.004Z,8.13
2022-11-19T18:48:54.963Z,7.43
2022-11-19T18:51:25.005Z,7.72
2022-11-19T18:53:53.105Z,8.02
2022-11-19T18:56:22.331Z,8.32
2022-11-19T18:58:50.250Z,7.85
2022-11-19T19:01:18.106Z,7.65
2022-11-19T19:03:46.292Z,7.20
2022-11-19T19:06:14.705Z,7.55
2022-11-19T19:08:42.549Z,7.82
2022-11-19T19:11:28.106Z,8.57
2022-11-19T19:13:57.406Z,7.47
2022-11-19T19:16:25.908Z,9.20
2022-11-19T19:18:53.799Z,8.57
2022-11-19T19:21:23.583Z,9.30
2022-11-19T19:23:51.522Z,10.85
2022-11-19T19:26:20.426Z,10.15
2022-11-19T19:28:50.501Z,9.75
2022-11-19T19:31:19.625Z,9.77
2022-11-19T19:33:47.940Z,10.02
2022-11-19T19:36:17.262Z,9.07
2022-11-19T19:38:45.421Z,9.40
2022-11-19T19:41:15.895Z,11.05
2022-11-19T19:43:43.916Z,10.23
2022-11-19T19:46:15.777Z,10.60
2022-11-19T19:48:45.689Z,10.50
2022-11-19T19:51:14.589Z,9.93
2022-11-19T19:53:42.634Z,9.93
2022-11-19T19:56:13.578Z,10.38
2022-11-19T19:58:43.616Z,10.68
2022-11-19T20:01:13.426Z,10.38
2022-11-19T20:03:41.377Z,9.57
2022-11-19T20:06:12.292Z,10.30
2022-11-19T20:08:41.029Z,10.30
2022-11-19T20:11:12.424Z,11.10
2022-11-19T20:13:40.922Z,10.77
2022-11-19T20:16:16.205Z,11.38
2022-11-19T20:18:46.609Z,9.43
2022-11-19T20:21:17.763Z,10.60
2022-11-19T20:23:45.790Z,10.75
2022-11-19T20:26:15.075Z,9.95
2022-11-19T20:28:43.573Z,9.70
2022-11-19T20:31:14.594Z,11.88
2022-11-19T20:33:43.731Z,10.60
2022-11-19T20:36:13.657Z,11.70
2022-11-19T20:38:45.856Z,10.80
2022-11-19T20:41:29.502Z,11.32
2022-11-19T20:44:15.298Z,11.43
2022-11-19T20:46:43.674Z,11.20
2022-11-19T20:49:16.907Z,10.18
2022-11-19T20:51:46.038Z,10.32
2022-11-19T20:54:15.905Z,11.40
2022-11-19T20:56:43.866Z,9.27
2022-11-19T20:59:12.737Z,9.70
2022-11-19T21:01:41.094Z,9.30
2022-11-19T21:04:09.489Z,11.15
2022-11-19T21:06:37.334Z,11.20
2022-11-19T21:09:05.476Z,9.98
2022-11-19T21:11:35.009Z,10.32
2022-11-19T21:14:03.815Z,9.95
2022-11-19T21:16:32.670Z,11.40
2022-11-19T21:19:01.722Z,8.77
2022-11-19T21:21:29.637Z,10.35
2022-11-19T21:23:57.594Z,9.50
2022-11-19T21:26:27.251Z,9.18
2022-11-19T21:28:58.148Z,10.10
2022-11-19T21:31:37.733Z,9.77
2022-11-19T21:34:06.370Z,10.52
2022-11-19T21:36:34.584Z,10.60
2022-11-19T21:39:02.640Z,10.85
2022-11-19T21:41:30.560Z,10.15
2022-11-19T21:43:59.812Z,11.40
2022-11-19T21:46:27.703Z,10.35
2022-11-19T21:48:55.443Z,11.07
2022-11-19T21:51:25.157Z,11.73
2022-11-19T21:53:55.153Z,11.45
2022-11-19T21:56:23.107Z,12.05
2022-11-19T21:58:50.879Z,10.68
2022-11-19T22:01:20.250Z,10.40
2022-11-19T22:03:48.110Z,11.10
2022-11-19T22:06:15.978Z,12.15
2022-11-19T22:08:44.132Z,10.82
2022-11-19T22:11:31.710Z,11.52
2022-11-19T22:14:02.325Z,11.90
2022-11-19T22:16:33.266Z,11.93
2022-11-19T22:19:01.344Z,12.52
2022-11-19T22:21:29.926Z,21.17
2022-11-19T22:23:57.810Z,13.50
2022-11-19T22:26:26.277Z,10.27
2022-11-19T22:28:54.050Z,10.85
2022-11-19T22:31:21.970Z,11.32
2022-11-19T22:33:51.897Z,9.52
2022-11-19T22:36:21.541Z,10.10
2022-11-19T22:38:49.549Z,9.88
2022-11-19T22:41:18.963Z,9.27
2022-11-19T22:43:47.054Z,9.82
2022-11-19T22:46:16.151Z,12.77
2022-11-19T22:48:44.467Z,12.75
2022-11-19T22:51:15.823Z,10.13
2022-11-19T22:53:44.154Z,9.43
2022-11-19T22:56:14.355Z,9.88
2022-11-19T22:58:42.578Z,8.90
2022-11-19T23:01:17.444Z,9.05
2022-11-19T23:03:45.728Z,9.63
2022-11-19T23:06:15.228Z,10.18
2022-11-19T23:08:43.187Z,10.75
2022-11-19T23:11:11.503Z,10.82
2022-11-19T23:13:40.217Z,10.88
2022-11-19T23:16:10.634Z,12.38
2022-11-19T23:18:40.055Z,10.95
2022-11-19T23:21:11.002Z,10.60
2022-11-19T23:23:40.702Z,9.90
2022-11-19T23:26:11.486Z,10.70
2022-11-19T23:28:40.110Z,9.38
2022-11-19T23:31:09.719Z,9.88
2022-11-19T23:33:37.901Z,8.95
2022-11-19T23:36:07.784Z,8.43
2022-11-19T23:38:36.345Z,9.57
2022-11-19T23:41:07.287Z,8.63
2022-11-19T23:43:35.758Z,8.90
2022-11-19T23:46:08.511Z,8.07
2022-11-19T23:48:37.774Z,8.57
2022-11-19T23:51:07.343Z,8.48
2022-11-19T23:53:35.624Z,8.15
2022-11-19T23:56:05.260Z,7.82
2022-11-19T23:58:33.124Z,7.43
